Udine-Campoformido Air Base

LIPD · Friuli Venezia Giulia, 意大利

罗盘
风向 的 Udine-Campoformido Air Base 4/22
风: 0 kt, 0 beaufort


改变
0 1.000 2.000 3.000 4.000 5.000
OVC 1.000 ft
SPECI LIVO 051355Z 00000KT 3000 -RA BR OVC010 02/M01 Q1017 RMK OVC VIS MIN 3000

METAR Udine-Campoformido Air Base - LIPD/UDN

Udine-Campoformido Air Base是,意大利中的小机场。 该机场有一条跑道: 4/22. 该领域的国际民航组织标志是LIPD 它的国际航空运输协会代码是UDN.

这份报告是针对2022年12月5日 14:55, 当地时间在Tarvisio进行的。

机场观察

可变方向的风很小或没有风。

可见度为3 km。

有乌云密布在1.000 ft的高度。 破损或更高的上限为1.000 ft。

当前天气为光 雨, 薄雾。 温度和风寒是2 °C。 露点为-1 °C,相对湿度为81%。 海平面上的气压为1017 hPa (QNH)。

白天

今天,太阳从07:33升起,在16:22降落。 这适用于Udine-Campoformido Air Base,世界夏令时可能有所不同。 当地时间与世界标准时间之间的时差为+1 小时。 当前,没有夏令时有效。

公司介绍

在这个机场,你可以找到飞行学校 和 跳伞中心。 这个机场上的公司有Aero Club Friulano 和 UPnGO Centro Paracadutismo F.v.g. - UDINE -。

体会

到Vliegles.nl去找飞行课程,跳伞和其他飞行体验。 浏览页面,了解Udine-Campoformido Air Base附近所有可用的活动。 你也可以使用搜索功能来寻找你所在地附近的特定飞行课程、跳伞或其他飞行体验。

跑道

Id 标题 侧风 逆风 侧风 %
4/22 040°-220°

逆风成分最大的方向会被突出显示,并用于横风计算。 这并不一定意味着这个方向在使用。

乌云

1.000 ft OVC 乌云密布

温度 & 天气

天气 光 雨
薄雾
温度 2 °C
露点 -1 °C
相对湿度 81%
Kp-index 2 (0-9)

评论

OVC VIS MIN 3000

白天

日出
07:33
中午
11:56
日落
16:19 (20m)

小工具

你想在你的网站上有一个关于Udine-Campoformido Air Base的当前航空天气(METAR)的小部件吗?

显示HTML代码

我们和第三方通过cookies跟踪您在我们网站上的互联网行为。如果你继续,我们认为你同意我们的饼干政策